Airfield :
LOGIN :

Register | Disclaimer

   EN    FR    IT 

 










Legend :    VFR   Marginal VFR   IFR   Intensive IFR   Very Intensive IFR
Visi :
Ceiling :
>= 8 km
>= 3000ft
5 to 8 km
1000 to 3000 ft
1500m to 5 km
500 to 1000 ft
800 to 1500m
200 to 500 ft
< 800m
< 200 ft
Symbols :   Thunderstorms  Fog  Heavy snow  Heavy precipitations  Wind > 20 kt
SIGMETs :     Misc.  Thunderstorms  Icing  Turbulence  Mountain Waves  Volcanic Ashes







- Airport Elevation : 296 ft
- IATA code : GKE


ETNG - Geilenkirchen

CURRENT METAR :
  • 240650Z 20007KT 9999 SCT012 SCT020 BKN050 13/12 Q1021 TEMPO 2500 DZRA BKN005

EXPIRED METARs :
  • 240631Z 22006KT 9000 -DZ FEW008 BKN010 BKN018 14/12 Q1021 TEMPO 2500 DZRA BKN005
  • 240550Z 21006KT 9000 -DZ SCT010 BKN018 13/12 Q1021 TEMPO 2500 DZRA BKN005
  • 240450Z 21006KT 9999 FEW008 BKN030 13/12 Q1021

TAF TAF ETNG
Valid from the 24 at 06:00 until the 24 at 21:00 UTC


240500Z 2406/2421 22008KT 9999 BKN010
TEMPO 2406/2418 2500 DZRA BKN005
BECMG 2408/2410 22012G23KT
No reported NOTAMs for that airfield.



MET'MAP, your aeronautical weather chart ! - Copyright ORBIFLY December 2007 - Disclaimer

ORBIFLY MET'MAP TEAM :

Programming & Development : Alexandra Zaïnal
Concept & Development : Baudouin d'Aumeries
Co-Development & Prog : Marc-Olivier Méhu
Technical & hardware support : Manuel Goepfert

Contact : metmap@orbifly.com




SOURCES & CREDITS :

   NOAA